Tawakoni's Hourly Summary for Sunday, April 16, 2017
Hour Temp
(f)
RH
(%)
Solar Rad.
(MJ/m2)
Rainfall
(in)
Wind
(mph)
4/16/2017 12:00 AM 67 72 0 0 4.79
4/16/2017 1:00 AM 67 73 0 0 6.29
4/16/2017 2:00 AM 67 79 0 0 6.46
4/16/2017 3:00 AM 66 83 0 0 5.42
4/16/2017 4:00 AM 66 85 0 0 6.52
4/16/2017 5:00 AM 65 87 0 0 5.96
4/16/2017 6:00 AM 65 90 0 0 5.67
4/16/2017 7:00 AM 64 92 0.01 0 5.58
4/16/2017 8:00 AM 65 90 0.29 0 6.28
4/16/2017 9:00 AM 67 84 0.76 0 7.96
4/16/2017 10:00 AM 69 82 0.87 0 8.88
4/16/2017 11:00 AM 70 76 1.08 0 7.94
4/16/2017 12:00 PM 71 71 1.27 0 7.15
4/16/2017 1:00 PM 74 68 1.48 0 7.59
4/16/2017 2:00 PM 75 65 1.04 0 5.9
4/16/2017 3:00 PM 77 57 2.52 0 6.92
4/16/2017 4:00 PM 77 57 1.33 0 7.09
4/16/2017 5:00 PM 79 55 2.13 0 8.88
4/16/2017 6:00 PM 78 57 0.94 0 6.02
4/16/2017 7:00 PM 76 60 0.22 0 0.93
4/16/2017 8:00 PM 73 73 0.06 0 0.47
4/16/2017 9:00 PM 71 82 0 0 0.08
4/16/2017 10:00 PM 70 82 0 0 2.45
4/16/2017 11:00 PM 69 85 0 0 1.63
Data Summary 70 75 14.00 0.00 5.54